createdAt,value
2018-07-27T00:00:01.110Z,94791.97
2018-07-27T00:02:27.791Z,94786.93
2018-07-27T00:04:54.390Z,94788.70
2018-07-27T00:07:21.028Z,94786.52
2018-07-27T00:09:47.669Z,94790.14
2018-07-27T00:12:14.380Z,94795.21
2018-07-27T00:14:41.021Z,94798.38
2018-07-27T00:17:07.659Z,94792.46
2018-07-27T00:19:34.308Z,94794.19
2018-07-27T00:22:00.942Z,94801.92
2018-07-27T00:24:27.581Z,94797.11
2018-07-27T00:26:54.225Z,94800.80
2018-07-27T00:29:20.863Z,94803.59
2018-07-27T00:31:47.505Z,94808.02
2018-07-27T00:34:14.146Z,94808.17
2018-07-27T00:36:40.797Z,94800.95
2018-07-27T00:39:07.426Z,94795.67
2018-07-27T00:41:34.064Z,94801.89
2018-07-27T00:44:00.702Z,94800.19
2018-07-27T00:46:27.339Z,94799.44
2018-07-27T00:48:53.978Z,94800.08
2018-07-27T00:51:20.613Z,94796.80
2018-07-27T00:53:47.253Z,94796.69
2018-07-27T00:56:13.892Z,94790.81
2018-07-27T00:58:40.538Z,94794.51
2018-07-27T01:01:07.176Z,94792.78
2018-07-27T01:03:33.823Z,94794.62
2018-07-27T01:06:00.450Z,94798.31
2018-07-27T01:08:27.089Z,94799.36
2018-07-27T01:10:53.747Z,94804.82
2018-07-27T01:13:20.394Z,94799.89
2018-07-27T01:15:47.033Z,94791.34
2018-07-27T01:18:13.669Z,94791.94
2018-07-27T01:20:40.309Z,94795.85
2018-07-27T01:23:06.951Z,94791.80
2018-07-27T01:25:33.624Z,94791.98
2018-07-27T01:28:00.265Z,94794.31
2018-07-27T01:30:26.905Z,94791.42
2018-07-27T01:32:53.549Z,94799.47
2018-07-27T01:35:20.194Z,94798.19
2018-07-27T01:37:46.878Z,94792.47
2018-07-27T01:40:13.541Z,94801.73
2018-07-27T01:42:40.196Z,94785.95
2018-07-27T01:45:06.823Z,94797.84
2018-07-27T01:47:33.464Z,94796.87
2018-07-27T01:50:00.092Z,94794.23
2018-07-27T01:52:26.726Z,94789.56
2018-07-27T01:54:53.362Z,94787.98
2018-07-27T01:57:20.060Z,94793.18
2018-07-27T01:59:46.691Z,94799.98
2018-07-27T02:02:13.322Z,94796.38
2018-07-27T02:04:39.962Z,94794.75
2018-07-27T02:07:06.611Z,94798.38
2018-07-27T02:09:33.335Z,94798.86
2018-07-27T02:11:59.942Z,94796.03
2018-07-27T02:14:26.591Z,94791.59
2018-07-27T02:16:53.281Z,94789.27
2018-07-27T02:19:19.921Z,94783.39
2018-07-27T02:21:46.556Z,94787.04
2018-07-27T02:24:13.197Z,94782.00
2018-07-27T02:26:39.834Z,94783.05
2018-07-27T02:29:06.513Z,94785.53
2018-07-27T02:31:33.157Z,94779.77
2018-07-27T02:33:59.878Z,94787.19
2018-07-27T02:36:26.511Z,94778.38
2018-07-27T02:38:53.133Z,94782.64
2018-07-27T02:41:19.783Z,94785.73
2018-07-27T02:43:46.432Z,94778.27
2018-07-27T02:46:13.077Z,94777.33
2018-07-27T02:48:39.703Z,94787.11
2018-07-27T02:51:06.345Z,94789.25
2018-07-27T02:53:33.017Z,94789.94
2018-07-27T02:55:59.709Z,94789.52
2018-07-27T02:58:26.474Z,94787.41
2018-07-27T03:00:53.147Z,94779.99
2018-07-27T03:03:19.766Z,94781.77
2018-07-27T03:05:46.443Z,94786.36
2018-07-27T03:08:13.084Z,94790.49
2018-07-27T03:10:39.717Z,94793.36
2018-07-27T03:13:06.366Z,94796.05
2018-07-27T03:15:33.014Z,94795.63
2018-07-27T03:17:59.671Z,94790.36
2018-07-27T03:20:26.318Z,94795.16
2018-07-27T03:22:52.965Z,94793.02
2018-07-27T03:25:19.619Z,94784.92
2018-07-27T03:27:46.291Z,94793.70
2018-07-27T03:30:12.934Z,94794.52
2018-07-27T03:32:39.566Z,94789.50
2018-07-27T03:35:06.219Z,94798.41
2018-07-27T03:37:32.857Z,94794.48
2018-07-27T03:39:59.504Z,94790.45
2018-07-27T03:42:26.144Z,94789.28
2018-07-27T03:44:52.780Z,94792.80
2018-07-27T03:47:19.413Z,94793.92
2018-07-27T03:49:46.088Z,94791.34
2018-07-27T03:52:12.750Z,94785.64
2018-07-27T03:54:39.387Z,94784.42
2018-07-27T03:57:06.067Z,94791.12
2018-07-27T03:59:32.698Z,94794.90
2018-07-27T04:01:59.335Z,94799.20
2018-07-27T04:04:25.986Z,94797.22
2018-07-27T04:06:52.619Z,94796.77
2018-07-27T04:09:19.293Z,94795.56
2018-07-27T04:11:45.932Z,94796.44
2018-07-27T04:14:12.629Z,94795.77
2018-07-27T04:16:39.259Z,94796.64
2018-07-27T04:19:05.902Z,94790.35
2018-07-27T04:21:32.547Z,94793.84
2018-07-27T04:23:59.178Z,94794.42
2018-07-27T04:26:25.944Z,94794.57
2018-07-27T04:28:52.492Z,94797.54
2018-07-27T04:31:19.140Z,94799.74
2018-07-27T04:33:46.283Z,94795.71
2018-07-27T04:36:12.922Z,94797.59
2018-07-27T04:38:39.558Z,94801.25
2018-07-27T04:41:06.189Z,94803.95
2018-07-27T04:43:32.833Z,94804.67
2018-07-27T04:45:59.471Z,94803.39
2018-07-27T04:48:26.132Z,94804.92
2018-07-27T04:50:52.783Z,94805.00
2018-07-27T04:53:19.453Z,94803.43
2018-07-27T04:55:46.058Z,94799.84
2018-07-27T04:58:12.701Z,94807.75
2018-07-27T05:00:39.365Z,94809.83
2018-07-27T05:03:06.003Z,94808.09
2018-07-27T05:05:32.634Z,94808.55
2018-07-27T05:07:59.272Z,94805.19
2018-07-27T05:10:25.907Z,94802.63
2018-07-27T05:12:52.555Z,94808.89
2018-07-27T05:15:19.235Z,94810.28
2018-07-27T05:17:45.869Z,94816.45
2018-07-27T05:20:12.494Z,94815.14
2018-07-27T05:22:39.159Z,94811.45
2018-07-27T05:25:05.810Z,94815.82
2018-07-27T05:27:32.532Z,94812.38
2018-07-27T05:29:59.159Z,94810.35
2018-07-27T05:32:25.807Z,94812.73
2018-07-27T05:34:52.494Z,94808.28
2018-07-27T05:37:19.173Z,94824.09
2018-07-27T05:39:45.767Z,94830.96
2018-07-27T05:42:12.425Z,94826.66
2018-07-27T05:44:39.064Z,94825.19
2018-07-27T05:47:05.785Z,94825.80
2018-07-27T05:49:32.395Z,94829.30
2018-07-27T05:51:59.052Z,94832.09
2018-07-27T05:54:25.689Z,94828.58
2018-07-27T05:56:52.456Z,94831.86
2018-07-27T05:59:19.121Z,94832.80
2018-07-27T06:01:45.782Z,94830.84
2018-07-27T06:04:12.430Z,94825.72
2018-07-27T06:06:39.078Z,94823.12
2018-07-27T06:09:05.716Z,94823.31
2018-07-27T06:11:32.358Z,94828.02
2018-07-27T06:13:59.036Z,94829.30
2018-07-27T06:16:25.647Z,94840.14
2018-07-27T06:18:52.280Z,94825.98
2018-07-27T06:21:18.932Z,94831.53
2018-07-27T06:23:45.602Z,94838.95
2018-07-27T06:26:12.265Z,94833.81
2018-07-27T06:28:38.905Z,94831.37
2018-07-27T06:31:05.528Z,94818.89
2018-07-27T06:33:32.192Z,94839.36
2018-07-27T06:35:58.859Z,94841.63
2018-07-27T06:38:25.498Z,94837.52
2018-07-27T06:40:52.133Z,94840.89
2018-07-27T06:43:18.821Z,94838.59
2018-07-27T06:45:45.466Z,94815.51
2018-07-27T06:48:12.152Z,94842.41
2018-07-27T06:50:38.798Z,94846.48
2018-07-27T06:53:05.448Z,94840.56
2018-07-27T06:55:32.103Z,94841.80
2018-07-27T06:57:58.758Z,94847.83
2018-07-27T07:00:25.403Z,94844.25
2018-07-27T07:02:52.042Z,94847.54
2018-07-27T07:05:18.733Z,94836.95
2018-07-27T07:07:45.440Z,94856.31
2018-07-27T07:10:15.437Z,94852.99
2018-07-27T07:12:42.048Z,94850.72
2018-07-27T07:15:08.734Z,94853.45
2018-07-27T07:17:35.375Z,94854.66
2018-07-27T07:20:02.092Z,94849.53
2018-07-27T07:22:28.815Z,94850.81
2018-07-27T07:24:55.414Z,94841.88
2018-07-27T07:27:22.125Z,94850.81
2018-07-27T07:29:48.741Z,94854.58
2018-07-27T07:32:15.428Z,94860.38
2018-07-27T07:34:42.217Z,94858.46
2018-07-27T07:37:08.876Z,94861.09
2018-07-27T07:39:35.630Z,94859.11
2018-07-27T07:42:02.335Z,94856.61
2018-07-27T07:44:28.974Z,94854.92
2018-07-27T07:46:55.628Z,94842.67
2018-07-27T07:49:22.284Z,94849.56
2018-07-27T07:51:48.918Z,94847.45
2018-07-27T07:54:15.595Z,94850.47
2018-07-27T07:56:42.269Z,94847.38
2018-07-27T07:59:08.918Z,94846.47
2018-07-27T08:01:35.553Z,94840.27
2018-07-27T08:04:02.203Z,94844.09
2018-07-27T08:06:28.923Z,94846.54
2018-07-27T08:08:55.555Z,94834.37
2018-07-27T08:11:22.246Z,94842.34
2018-07-27T08:13:48.880Z,94839.14
2018-07-27T08:16:15.588Z,94834.13
2018-07-27T08:18:42.269Z,94832.47
2018-07-27T08:21:08.897Z,94834.45
2018-07-27T08:23:35.586Z,94821.38
2018-07-27T08:26:02.273Z,94825.73
2018-07-27T08:28:28.948Z,94819.50
2018-07-27T08:30:55.557Z,94812.80
2018-07-27T08:33:22.898Z,94817.97
2018-07-27T08:35:49.540Z,94818.62
2018-07-27T08:38:16.188Z,94808.72
2018-07-27T08:40:42.892Z,94809.68
2018-07-27T08:43:09.543Z,94810.05
2018-07-27T08:45:36.221Z,94807.29
2018-07-27T08:48:02.866Z,94808.92
2018-07-27T08:50:29.520Z,94803.55
2018-07-27T08:52:56.219Z,94813.19
2018-07-27T08:55:22.867Z,94806.88
2018-07-27T08:57:49.557Z,94815.55
2018-07-27T09:00:16.265Z,94807.65
2018-07-27T09:02:42.917Z,94808.28
2018-07-27T09:05:09.560Z,94799.24
2018-07-27T09:07:36.268Z,94802.32
2018-07-27T09:10:02.905Z,94800.06
2018-07-27T09:12:29.582Z,94793.52
2018-07-27T09:14:56.214Z,94772.52
2018-07-27T09:17:22.950Z,94786.70
2018-07-27T09:19:49.537Z,94778.97
2018-07-27T09:22:16.245Z,94778.30
2018-07-27T09:24:43.100Z,94773.97
2018-07-27T09:27:09.598Z,94776.05
2018-07-27T09:29:36.237Z,94768.09
2018-07-27T09:32:02.974Z,94765.06
2018-07-27T09:34:29.609Z,94749.38
2018-07-27T09:36:56.253Z,94755.18
2018-07-27T09:39:22.990Z,94749.67
2018-07-27T09:41:49.644Z,94749.77
2018-07-27T09:44:16.290Z,94742.03
2018-07-27T09:46:42.936Z,94737.95
2018-07-27T09:49:09.633Z,94729.69
2018-07-27T09:51:36.274Z,94723.75
2018-07-27T09:54:02.988Z,94727.29
2018-07-27T09:56:29.622Z,94725.58
2018-07-27T09:58:56.295Z,94723.75
2018-07-27T10:01:22.947Z,94725.47
2018-07-27T10:03:49.594Z,94733.08
2018-07-27T10:06:16.241Z,94710.44
2018-07-27T10:08:42.886Z,94716.73
2018-07-27T10:11:09.585Z,94713.59
2018-07-27T10:13:36.225Z,94707.08
2018-07-27T10:16:03.947Z,94712.48
2018-07-27T10:18:34.621Z,94707.83
2018-07-27T10:21:01.349Z,94706.70
2018-07-27T10:23:28.008Z,94710.86
2018-07-27T10:25:54.744Z,94706.77
2018-07-27T10:28:21.524Z,94699.78
2018-07-27T10:30:48.205Z,94705.31
2018-07-27T10:33:14.942Z,94697.55
2018-07-27T10:35:41.623Z,94698.32
2018-07-27T10:38:09.768Z,94697.02
2018-07-27T10:40:34.926Z,94692.06
2018-07-27T10:43:01.719Z,94689.21
2018-07-27T10:45:28.486Z,94688.69
2018-07-27T10:47:55.141Z,94682.60
2018-07-27T10:50:21.837Z,94679.91
2018-07-27T10:52:48.532Z,94674.68
2018-07-27T10:55:15.205Z,94671.44
2018-07-27T10:57:41.848Z,94674.31
2018-07-27T11:00:08.558Z,94667.56
2018-07-27T11:02:35.230Z,94671.47
2018-07-27T11:05:01.965Z,94678.98
2018-07-27T11:07:28.576Z,94680.30
2018-07-27T11:09:55.266Z,94678.39
2018-07-27T11:12:21.862Z,94678.04
2018-07-27T11:14:48.616Z,94678.25
2018-07-27T11:17:15.348Z,94667.83
2018-07-27T11:19:41.971Z,94660.66
2018-07-27T11:22:08.664Z,94663.57
2018-07-27T11:24:35.383Z,94655.23
2018-07-27T11:27:02.120Z,94654.75
2018-07-27T11:29:28.825Z,94653.59
2018-07-27T11:31:55.450Z,94657.11
2018-07-27T11:34:22.162Z,94656.58
2018-07-27T11:36:48.818Z,94657.37
2018-07-27T11:39:15.603Z,94659.52
2018-07-27T11:41:42.264Z,94647.52
2018-07-27T11:44:08.973Z,94645.47
2018-07-27T11:46:35.619Z,94644.00
2018-07-27T11:49:02.342Z,94641.73
2018-07-27T11:51:28.962Z,94647.53
2018-07-27T11:53:55.663Z,94640.61
2018-07-27T11:56:22.313Z,94643.98
2018-07-27T11:58:48.945Z,94639.22
2018-07-27T12:01:15.620Z,94628.04
2018-07-27T12:03:42.266Z,94615.84
2018-07-27T12:06:08.989Z,94615.77
2018-07-27T12:08:35.940Z,94611.38
2018-07-27T12:11:02.610Z,94608.50
2018-07-27T12:13:29.314Z,94612.70
2018-07-27T12:15:55.973Z,94614.64
2018-07-27T12:18:22.628Z,94615.85
2018-07-27T12:20:49.423Z,94611.87
2018-07-27T12:23:16.016Z,94614.36
2018-07-27T12:25:42.695Z,94619.02
2018-07-27T12:28:09.493Z,94622.94
2018-07-27T12:30:36.154Z,94628.70
2018-07-27T12:33:02.799Z,94624.24
2018-07-27T12:35:29.616Z,94626.38
2018-07-27T12:37:56.255Z,94625.17
2018-07-27T12:40:22.928Z,94622.48
2018-07-27T12:42:49.596Z,94621.91
2018-07-27T12:45:16.229Z,94627.03
2018-07-27T12:47:42.924Z,94616.23
2018-07-27T12:50:09.592Z,94625.36
2018-07-27T12:52:36.210Z,94620.52
2018-07-27T12:55:02.882Z,94623.03
2018-07-27T12:57:29.967Z,94606.07
2018-07-27T12:59:56.637Z,94610.47
2018-07-27T13:02:23.313Z,94609.82
2018-07-27T13:04:49.940Z,94622.77
2018-07-27T13:07:16.647Z,94623.41
2018-07-27T13:09:43.286Z,94622.01
2018-07-27T13:12:09.933Z,94622.45
2018-07-27T13:14:36.594Z,94614.08
2018-07-27T13:17:03.262Z,94608.31
2018-07-27T13:19:30.291Z,94608.59
2018-07-27T13:21:56.946Z,94602.45
2018-07-27T13:26:50.222Z,94593.33
2018-07-27T13:29:16.873Z,94593.41
2018-07-27T13:31:43.528Z,94595.38
2018-07-27T13:34:10.166Z,94604.49
2018-07-27T13:36:36.845Z,94607.47
2018-07-27T13:39:03.458Z,94614.75
2018-07-27T13:41:30.123Z,94622.00
2018-07-27T13:43:56.817Z,94625.98
2018-07-27T13:46:23.544Z,94624.88
2018-07-27T13:48:50.145Z,94620.13
2018-07-27T13:51:16.796Z,94623.12
2018-07-27T13:53:43.553Z,94631.03
2018-07-27T13:56:10.624Z,94626.88
2018-07-27T13:58:37.320Z,94626.62
2018-07-27T14:01:03.993Z,94617.95
2018-07-27T14:03:30.611Z,94625.45
2018-07-27T14:05:57.262Z,94626.41
2018-07-27T14:08:23.971Z,94627.80
2018-07-27T14:10:50.614Z,94630.28
2018-07-27T14:13:17.257Z,94635.69
2018-07-27T14:15:43.906Z,94633.18
2018-07-27T14:18:10.551Z,94635.52
2018-07-27T14:20:37.207Z,94637.32
2018-07-27T14:23:03.856Z,94629.88
2018-07-27T14:25:30.530Z,94629.50
2018-07-27T14:27:57.188Z,94627.98
2018-07-27T14:30:23.898Z,94627.25
2018-07-27T14:32:50.490Z,94621.87
2018-07-27T14:35:17.208Z,94627.97
2018-07-27T14:37:43.850Z,94631.78
2018-07-27T14:40:10.534Z,94628.52
2018-07-27T14:42:37.188Z,94634.56
2018-07-27T14:45:03.833Z,94636.92
2018-07-27T14:47:30.614Z,94637.80
2018-07-27T14:49:57.280Z,94635.61
2018-07-27T14:52:23.999Z,94635.59
2018-07-27T14:54:50.606Z,94635.40
2018-07-27T14:57:17.241Z,94632.20
2018-07-27T14:59:43.897Z,94645.59
2018-07-27T15:02:10.559Z,94644.33
2018-07-27T15:04:37.270Z,94641.59
2018-07-27T15:07:03.855Z,94635.85
2018-07-27T15:09:30.509Z,94630.06
2018-07-27T15:11:58.512Z,94631.81
2018-07-27T15:14:23.848Z,94634.81
2018-07-27T15:16:50.530Z,94637.30
2018-07-27T15:19:17.180Z,94629.53
2018-07-27T15:21:43.822Z,94645.68
2018-07-27T15:24:10.561Z,94643.34
2018-07-27T15:26:37.158Z,94646.98
2018-07-27T15:29:03.914Z,94654.05
2018-07-27T15:31:30.519Z,94649.58
2018-07-27T15:33:57.196Z,94646.78
2018-07-27T15:36:23.894Z,94650.99
2018-07-27T15:38:50.516Z,94652.40
2018-07-27T15:41:17.173Z,94654.48
2018-07-27T15:43:43.805Z,94654.59
2018-07-27T15:46:10.491Z,94658.02
2018-07-27T15:48:37.129Z,94656.95
2018-07-27T15:51:03.742Z,94656.27
2018-07-27T15:53:30.380Z,94656.48
2018-07-27T15:55:57.021Z,94660.70
2018-07-27T15:58:23.660Z,94649.94
2018-07-27T16:00:50.291Z,94648.76
2018-07-27T16:03:16.940Z,94653.62
2018-07-27T16:05:43.577Z,94660.74
2018-07-27T16:08:10.224Z,94657.84
2018-07-27T16:10:36.874Z,94668.98
2018-07-27T16:13:03.523Z,94667.73
2018-07-27T16:15:30.192Z,94663.02
2018-07-27T16:17:56.806Z,94662.23
2018-07-27T16:20:23.462Z,94660.64
2018-07-27T16:22:50.121Z,94659.48
2018-07-27T16:25:16.758Z,94665.84
2018-07-27T16:27:43.399Z,94667.80
2018-07-27T16:30:10.046Z,94667.10
2018-07-27T16:32:37.183Z,94672.67
2018-07-27T16:35:03.833Z,94677.50
2018-07-27T16:37:30.483Z,94674.61
2018-07-27T16:39:57.129Z,94677.85
2018-07-27T16:42:24.611Z,94669.76
2018-07-27T16:44:51.294Z,94675.36
2018-07-27T16:47:17.931Z,94672.95
2018-07-27T16:49:44.557Z,94681.77
2018-07-27T16:52:11.203Z,94687.18
2018-07-27T16:54:37.868Z,94690.08
2018-07-27T16:57:04.523Z,94691.20
2018-07-27T16:59:31.167Z,94686.63
2018-07-27T17:01:57.803Z,94690.34
2018-07-27T17:04:24.437Z,94695.75
2018-07-27T17:06:51.120Z,94696.50
2018-07-27T17:09:17.805Z,94694.81
2018-07-27T17:11:44.396Z,94703.70
2018-07-27T17:14:11.076Z,94710.58
2018-07-27T17:16:37.677Z,94711.14
2018-07-27T17:19:04.351Z,94710.59
2018-07-27T17:21:30.947Z,94715.11
2018-07-27T17:23:57.586Z,94718.14
2018-07-27T17:26:24.210Z,94719.27
2018-07-27T17:28:51.407Z,94721.14
2018-07-27T17:31:18.036Z,94724.55
2018-07-27T17:33:44.712Z,94731.20
2018-07-27T17:36:11.310Z,94728.66
2018-07-27T17:38:37.952Z,94728.89
2018-07-27T17:41:04.586Z,94738.71
2018-07-27T17:43:31.237Z,94736.86
2018-07-27T17:45:57.933Z,94730.00
2018-07-27T17:48:24.574Z,94732.75
2018-07-27T17:50:51.240Z,94735.38
2018-07-27T17:53:19.549Z,94731.88
2018-07-27T17:55:44.512Z,94732.06
2018-07-27T17:58:11.148Z,94731.55
2018-07-27T18:00:37.784Z,94733.78
2018-07-27T18:03:04.428Z,94737.29
2018-07-27T18:05:31.100Z,94735.25
2018-07-27T18:07:57.931Z,94741.16
2018-07-27T18:10:24.350Z,94733.85
2018-07-27T18:12:51.017Z,94749.17
2018-07-27T18:15:17.663Z,94759.01
2018-07-27T18:17:44.302Z,94749.89
2018-07-27T18:20:10.944Z,94744.16
2018-07-27T18:22:37.586Z,94747.98
2018-07-27T18:25:04.253Z,94748.98
2018-07-27T18:27:30.903Z,94754.70
2018-07-27T18:29:57.540Z,94761.66
2018-07-27T18:32:24.222Z,94759.30
2018-07-27T18:34:50.824Z,94753.30
2018-07-27T18:37:17.462Z,94749.06
2018-07-27T18:39:44.206Z,94751.48
2018-07-27T18:42:10.784Z,94744.72
2018-07-27T18:44:37.507Z,94751.05
2018-07-27T18:47:04.167Z,94749.73
2018-07-27T18:49:30.816Z,94751.58
2018-07-27T18:51:57.442Z,94745.34
2018-07-27T18:54:24.088Z,94755.99
2018-07-27T18:56:50.749Z,94755.14
2018-07-27T18:59:17.407Z,94763.00
2018-07-27T19:01:44.075Z,94776.49
2018-07-27T19:04:10.658Z,94775.08
2018-07-27T19:06:37.309Z,94767.00
2018-07-27T19:09:04.019Z,94777.36
2018-07-27T19:11:30.654Z,94777.22
2018-07-27T19:13:57.312Z,94779.16
2018-07-27T19:16:23.971Z,94769.69
2018-07-27T19:18:50.606Z,94775.45
2018-07-27T19:21:17.246Z,94769.34
2018-07-27T19:23:43.944Z,94770.79
2018-07-27T19:26:10.596Z,94770.48
2018-07-27T19:28:37.246Z,94774.36
2018-07-27T19:31:03.888Z,94782.89
2018-07-27T19:33:30.528Z,94786.97
2018-07-27T19:35:57.208Z,94789.08
2018-07-27T19:38:23.844Z,94799.42
2018-07-27T19:40:50.484Z,94795.35
2018-07-27T19:43:17.145Z,94792.25
2018-07-27T19:45:43.775Z,94785.55
2018-07-27T19:48:10.425Z,94784.67
2018-07-27T19:50:37.062Z,94776.98
2018-07-27T19:53:03.715Z,94776.52
2018-07-27T19:55:30.362Z,94775.58
2018-07-27T19:57:56.998Z,94772.52
2018-07-27T20:00:23.744Z,94767.63
2018-07-27T20:02:50.382Z,94763.17
2018-07-27T20:05:17.118Z,94771.62
2018-07-27T20:07:43.757Z,94757.63
2018-07-27T20:10:10.396Z,94767.67
2018-07-27T20:12:37.038Z,94762.47
2018-07-27T20:15:03.738Z,94756.89
2018-07-27T20:17:30.389Z,94770.38
2018-07-27T20:19:57.016Z,94765.41
2018-07-27T20:22:23.661Z,94768.02
2018-07-27T20:24:50.287Z,94771.00
2018-07-27T20:27:16.979Z,94769.45
2018-07-27T20:29:43.622Z,94770.82
2018-07-27T20:32:10.319Z,94772.14
2018-07-27T20:34:36.982Z,94774.61
2018-07-27T20:37:03.610Z,94777.22
2018-07-27T20:39:30.263Z,94777.63
2018-07-27T20:41:56.897Z,94777.43
2018-07-27T20:44:23.548Z,94774.13
2018-07-27T20:46:50.196Z,94773.19
2018-07-27T20:49:16.835Z,94771.61
2018-07-27T20:51:43.482Z,94770.64
2018-07-27T20:54:10.123Z,94763.00
2018-07-27T20:56:36.787Z,94759.04
2018-07-27T20:59:03.469Z,94758.02
2018-07-27T21:01:30.209Z,94754.56
2018-07-27T21:03:58.229Z,94758.98
2018-07-27T21:06:23.476Z,94757.33
2018-07-27T21:08:50.120Z,94747.80
2018-07-27T21:11:16.763Z,94751.53
2018-07-27T21:13:43.413Z,94746.52
2018-07-27T21:16:10.051Z,94740.30
2018-07-27T21:18:36.718Z,94731.47
2018-07-27T21:21:03.350Z,94732.30
2018-07-27T21:23:30.000Z,94731.55
2018-07-27T21:25:56.659Z,94727.55
2018-07-27T21:28:23.307Z,94719.11
2018-07-27T21:30:49.943Z,94714.81
2018-07-27T21:33:16.579Z,94701.09
2018-07-27T21:35:43.250Z,94696.37
2018-07-27T21:38:09.922Z,94694.55
2018-07-27T21:40:36.544Z,94694.73
2018-07-27T21:43:03.183Z,94690.92
2018-07-27T21:45:29.819Z,94696.61
2018-07-27T21:47:56.507Z,94698.46
2018-07-27T21:50:23.161Z,94699.02
2018-07-27T21:52:49.844Z,94700.80
2018-07-27T21:55:16.484Z,94706.42
2018-07-27T21:57:43.159Z,94705.78
2018-07-27T22:00:09.857Z,94706.64
2018-07-27T22:02:36.539Z,94698.16
2018-07-27T22:05:03.195Z,94699.75
2018-07-27T22:07:29.826Z,94700.84
2018-07-27T22:09:56.519Z,94694.63
2018-07-27T22:12:23.176Z,94701.59
2018-07-27T22:14:49.888Z,94703.95
2018-07-27T22:17:16.479Z,94702.08
2018-07-27T22:19:43.133Z,94708.52
2018-07-27T22:22:09.769Z,94704.39
2018-07-27T22:24:36.407Z,94707.17
2018-07-27T22:27:03.084Z,94711.44
2018-07-27T22:29:29.727Z,94714.71
2018-07-27T22:31:56.361Z,94712.75
2018-07-27T22:34:22.999Z,94711.17
2018-07-27T22:36:49.656Z,94713.03
2018-07-27T22:39:16.280Z,94709.41
2018-07-27T22:41:42.927Z,94708.57
2018-07-27T22:44:09.566Z,94714.98
2018-07-27T22:46:36.280Z,94723.16
2018-07-27T22:49:02.931Z,94723.53
2018-07-27T22:51:29.583Z,94717.93
2018-07-27T22:53:56.222Z,94710.13
2018-07-27T22:56:22.866Z,94711.17
2018-07-27T22:58:49.550Z,94709.56
2018-07-27T23:01:16.180Z,94708.49
2018-07-27T23:03:42.863Z,94706.08
2018-07-27T23:06:09.464Z,94703.29
2018-07-27T23:08:36.115Z,94698.65
2018-07-27T23:11:02.809Z,94698.63
2018-07-27T23:13:29.433Z,94714.98
2018-07-27T23:15:56.105Z,94721.69
2018-07-27T23:18:22.750Z,94708.84
2018-07-27T23:20:49.390Z,94702.41
2018-07-27T23:23:16.038Z,94697.47
2018-07-27T23:25:42.681Z,94697.77
2018-07-27T23:28:09.325Z,94696.21
2018-07-27T23:30:36.010Z,94692.25
2018-07-27T23:33:02.646Z,94688.73
2018-07-27T23:35:29.329Z,94696.64
2018-07-27T23:37:56.069Z,94698.84
2018-07-27T23:40:22.716Z,94699.89
2018-07-27T23:42:49.379Z,94699.80
2018-07-27T23:45:16.004Z,94697.08
2018-07-27T23:47:42.684Z,94696.22
2018-07-27T23:50:09.325Z,94701.34
2018-07-27T23:52:36.011Z,94706.64
2018-07-27T23:55:02.640Z,94707.64
2018-07-27T23:57:29.271Z,94699.19
2018-07-27T23:59:55.919Z,94703.08
